sensor_id;sensor_type;location;lat;lon;timestamp;pressure;altitude;pressure_sealevel;temperature;humidity
21706;BME280;11014;53.076;18.208;2023-02-21T00:06:51;100054.16;;;10.39;71.07
21706;BME280;11014;53.076;18.208;2023-02-21T00:09:39;100058.19;;;10.25;70.89
21706;BME280;11014;53.076;18.208;2023-02-21T00:12:27;100074.66;;;10.28;70.55
21706;BME280;11014;53.076;18.208;2023-02-21T00:15:15;100064.50;;;10.47;70.97
21706;BME280;11014;53.076;18.208;2023-02-21T00:18:01;100080.84;;;10.29;70.21
21706;BME280;11014;53.076;18.208;2023-02-21T00:20:48;100067.34;;;10.40;70.76
21706;BME280;11014;53.076;18.208;2023-02-21T00:23:35;100056.63;;;10.40;70.52
21706;BME280;11014;53.076;18.208;2023-02-21T00:26:23;100049.59;;;10.39;70.47
21706;BME280;11014;53.076;18.208;2023-02-21T00:29:09;100044.00;;;10.24;69.08
21706;BME280;11014;53.076;18.208;2023-02-21T00:31:57;100053.44;;;10.43;69.26
21706;BME280;11014;53.076;18.208;2023-02-21T00:34:43;100055.38;;;10.31;68.67
21706;BME280;11014;53.076;18.208;2023-02-21T00:37:31;100039.59;;;10.18;68.51
21706;BME280;11014;53.076;18.208;2023-02-21T00:40:18;100040.66;;;10.34;68.29
21706;BME280;11014;53.076;18.208;2023-02-21T00:43:06;100042.25;;;10.18;67.32
21706;BME280;11014;53.076;18.208;2023-02-21T00:45:52;100072.00;;;10.17;67.25
21706;BME280;11014;53.076;18.208;2023-02-21T00:48:40;100064.31;;;10.20;67.21
21706;BME280;11014;53.076;18.208;2023-02-21T00:51:27;100043.34;;;10.34;66.58
21706;BME280;11014;53.076;18.208;2023-02-21T00:54:15;100052.19;;;10.06;65.56
21706;BME280;11014;53.076;18.208;2023-02-21T00:57:05;100048.75;;;10.22;65.50
21706;BME280;11014;53.076;18.208;2023-02-21T00:59:52;100073.50;;;10.24;65.36
21706;BME280;11014;53.076;18.208;2023-02-21T01:02:40;100054.63;;;10.19;64.19
21706;BME280;11014;53.076;18.208;2023-02-21T01:05:28;100081.19;;;10.32;64.19
21706;BME280;11014;53.076;18.208;2023-02-21T01:08:15;100069.69;;;10.37;63.70
21706;BME280;11014;53.076;18.208;2023-02-21T01:11:02;100074.97;;;10.32;63.14
21706;BME280;11014;53.076;18.208;2023-02-21T01:13:49;100081.00;;;10.39;62.91
21706;BME280;11014;53.076;18.208;2023-02-21T01:16:36;100067.75;;;10.32;62.06
21706;BME280;11014;53.076;18.208;2023-02-21T01:19:34;100068.47;;;10.28;61.51
21706;BME280;11014;53.076;18.208;2023-02-21T01:22:22;100062.78;;;10.24;60.93
21706;BME280;11014;53.076;18.208;2023-02-21T01:25:10;100072.97;;;10.10;60.62
21706;BME280;11014;53.076;18.208;2023-02-21T01:27:59;100077.22;;;9.67;60.17
21706;BME280;11014;53.076;18.208;2023-02-21T01:30:46;100085.56;;;10.10;60.71
21706;BME280;11014;53.076;18.208;2023-02-21T01:33:39;100077.72;;;10.20;60.21
21706;BME280;11014;53.076;18.208;2023-02-21T01:36:26;100123.78;;;9.89;60.50
21706;BME280;11014;53.076;18.208;2023-02-21T01:39:14;100093.41;;;10.00;61.02
21706;BME280;11014;53.076;18.208;2023-02-21T01:42:02;100089.75;;;10.06;60.69
21706;BME280;11014;53.076;18.208;2023-02-21T01:48:14;100096.53;;;10.08;60.40
21706;BME280;11014;53.076;18.208;2023-02-21T01:51:04;100104.91;;;10.12;60.23
21706;BME280;11014;53.076;18.208;2023-02-21T01:53:52;100102.63;;;10.04;59.91
21706;BME280;11014;53.076;18.208;2023-02-21T01:56:41;100119.28;;;10.18;59.45
21706;BME280;11014;53.076;18.208;2023-02-21T01:59:28;100114.38;;;10.43;59.86
21706;BME280;11014;53.076;18.208;2023-02-21T02:02:41;100123.91;;;10.22;59.23
21706;BME280;11014;53.076;18.208;2023-02-21T02:05:32;100105.41;;;10.37;59.48
21706;BME280;11014;53.076;18.208;2023-02-21T02:08:26;100103.31;;;10.39;59.05
21706;BME280;11014;53.076;18.208;2023-02-21T02:26:12;100106.38;;;10.31;59.18
21706;BME280;11014;53.076;18.208;2023-02-21T02:29:14;100114.34;;;10.26;58.51
21706;BME280;11014;53.076;18.208;2023-02-21T02:34:48;100105.97;;;10.39;58.53
21706;BME280;11014;53.076;18.208;2023-02-21T02:48:32;100099.19;;;10.20;58.46
21706;BME280;11014;53.076;18.208;2023-02-21T02:51:06;100098.63;;;10.06;57.64
21706;BME280;11014;53.076;18.208;2023-02-21T02:53:36;100119.75;;;10.03;56.56
21706;BME280;11014;53.076;18.208;2023-02-21T02:56:08;100119.22;;;10.29;57.18
21706;BME280;11014;53.076;18.208;2023-02-21T02:58:45;100141.53;;;10.30;56.69
21706;BME280;11014;53.076;18.208;2023-02-21T03:07:06;100099.38;;;10.02;56.33
21706;BME280;11014;53.076;18.208;2023-02-21T03:10:08;100093.63;;;10.10;56.80
21706;BME280;11014;53.076;18.208;2023-02-21T03:12:52;100086.34;;;10.22;57.09
21706;BME280;11014;53.076;18.208;2023-02-21T03:15:34;100087.19;;;9.83;57.40
21706;BME280;11014;53.076;18.208;2023-02-21T03:18:15;100078.19;;;9.89;57.88
21706;BME280;11014;53.076;18.208;2023-02-21T03:20:51;100074.22;;;9.91;58.09
21706;BME280;11014;53.076;18.208;2023-02-21T03:23:21;100091.09;;;9.92;57.91
21706;BME280;11014;53.076;18.208;2023-02-21T03:25:56;100078.56;;;9.81;58.15
21706;BME280;11014;53.076;18.208;2023-02-21T03:28:26;100091.59;;;9.89;58.60
21706;BME280;11014;53.076;18.208;2023-02-21T03:30:58;100087.63;;;9.91;58.17
21706;BME280;11014;53.076;18.208;2023-02-21T03:33:29;100094.59;;;9.64;58.59
21706;BME280;11014;53.076;18.208;2023-02-21T03:36:00;100068.69;;;9.70;59.02
21706;BME280;11014;53.076;18.208;2023-02-21T03:38:35;100075.56;;;9.66;58.75
21706;BME280;11014;53.076;18.208;2023-02-21T03:41:05;100099.91;;;9.76;58.58
21706;BME280;11014;53.076;18.208;2023-02-21T03:43:35;100095.44;;;9.81;58.60
21706;BME280;11014;53.076;18.208;2023-02-21T03:46:04;100088.13;;;9.77;58.81
21706;BME280;11014;53.076;18.208;2023-02-21T03:48:33;100100.06;;;9.58;58.86
21706;BME280;11014;53.076;18.208;2023-02-21T03:51:12;100094.72;;;9.58;58.94
21706;BME280;11014;53.076;18.208;2023-02-21T03:53:41;100099.16;;;9.52;59.05
21706;BME280;11014;53.076;18.208;2023-02-21T03:56:12;100106.47;;;9.68;59.22
21706;BME280;11014;53.076;18.208;2023-02-21T03:58:57;100100.75;;;9.65;58.36
21706;BME280;11014;53.076;18.208;2023-02-21T04:01:26;100108.69;;;9.60;58.57
21706;BME280;11014;53.076;18.208;2023-02-21T04:03:55;100107.41;;;9.62;58.95
21706;BME280;11014;53.076;18.208;2023-02-21T04:06:24;100108.28;;;9.79;58.26
21706;BME280;11014;53.076;18.208;2023-02-21T04:08:52;100126.94;;;9.86;57.85
21706;BME280;11014;53.076;18.208;2023-02-21T04:11:24;100107.47;;;9.79;58.32
21706;BME280;11014;53.076;18.208;2023-02-21T04:13:54;100109.31;;;9.90;57.79
21706;BME280;11014;53.076;18.208;2023-02-21T04:16:24;100122.81;;;9.95;57.84
21706;BME280;11014;53.076;18.208;2023-02-21T04:18:53;100119.75;;;10.03;57.82
21706;BME280;11014;53.076;18.208;2023-02-21T04:21:24;100106.59;;;10.01;57.99
21706;BME280;11014;53.076;18.208;2023-02-21T04:23:58;100130.50;;;10.03;57.99
21706;BME280;11014;53.076;18.208;2023-02-21T04:26:31;100115.47;;;10.02;57.94
21706;BME280;11014;53.076;18.208;2023-02-21T04:29:03;100114.78;;;9.95;57.95
21706;BME280;11014;53.076;18.208;2023-02-21T04:31:32;100110.47;;;9.94;57.72
21706;BME280;11014;53.076;18.208;2023-02-21T04:34:06;100112.56;;;9.92;58.18
21706;BME280;11014;53.076;18.208;2023-02-21T04:36:42;100125.28;;;9.96;57.88
21706;BME280;11014;53.076;18.208;2023-02-21T04:39:11;100134.91;;;9.81;58.34
21706;BME280;11014;53.076;18.208;2023-02-21T04:41:40;100110.47;;;9.94;58.35
21706;BME280;11014;53.076;18.208;2023-02-21T04:44:09;100139.19;;;9.82;57.92
21706;BME280;11014;53.076;18.208;2023-02-21T04:46:39;100116.31;;;9.91;58.63
21706;BME280;11014;53.076;18.208;2023-02-21T04:49:10;100118.81;;;10.09;57.96
21706;BME280;11014;53.076;18.208;2023-02-21T04:51:39;100145.63;;;10.09;57.49
21706;BME280;11014;53.076;18.208;2023-02-21T04:54:08;100120.91;;;10.07;57.76
21706;BME280;11014;53.076;18.208;2023-02-21T04:56:39;100154.22;;;9.94;57.59
21706;BME280;11014;53.076;18.208;2023-02-21T04:59:08;100126.19;;;10.02;57.92
21706;BME280;11014;53.076;18.208;2023-02-21T05:01:37;100137.56;;;9.81;58.33
21706;BME280;11014;53.076;18.208;2023-02-21T05:04:05;100123.25;;;10.15;57.79
21706;BME280;11014;53.076;18.208;2023-02-21T05:06:34;100131.75;;;10.24;57.77
21706;BME280;11014;53.076;18.208;2023-02-21T05:09:03;100133.34;;;10.25;57.92
21706;BME280;11014;53.076;18.208;2023-02-21T05:11:33;100130.25;;;10.16;57.98
21706;BME280;11014;53.076;18.208;2023-02-21T05:14:02;100124.63;;;10.18;58.02
21706;BME280;11014;53.076;18.208;2023-02-21T05:16:31;100117.75;;;10.22;58.13
21706;BME280;11014;53.076;18.208;2023-02-21T05:18:59;100122.88;;;10.23;58.72
21706;BME280;11014;53.076;18.208;2023-02-21T05:21:34;100124.34;;;10.02;59.22
21706;BME280;11014;53.076;18.208;2023-02-21T05:24:05;100131.66;;;10.07;59.27
21706;BME280;11014;53.076;18.208;2023-02-21T05:26:36;100140.28;;;10.09;60.73
21706;BME280;11014;53.076;18.208;2023-02-21T05:29:05;100156.09;;;9.82;60.69
21706;BME280;11014;53.076;18.208;2023-02-21T05:31:49;100144.56;;;9.82;60.84
21706;BME280;11014;53.076;18.208;2023-02-21T05:34:18;100170.66;;;9.86;60.78
21706;BME280;11014;53.076;18.208;2023-02-21T05:36:47;100168.84;;;9.64;61.12
21706;BME280;11014;53.076;18.208;2023-02-21T05:39:15;100166.47;;;9.79;61.14
21706;BME280;11014;53.076;18.208;2023-02-21T05:41:50;100171.75;;;9.62;61.21
21706;BME280;11014;53.076;18.208;2023-02-21T05:44:19;100181.16;;;9.88;61.35
21706;BME280;11014;53.076;18.208;2023-02-21T05:46:47;100175.69;;;9.94;61.11
21706;BME280;11014;53.076;18.208;2023-02-21T05:49:16;100165.34;;;9.75;62.03
21706;BME280;11014;53.076;18.208;2023-02-21T05:51:45;100186.88;;;9.91;62.28
21706;BME280;11014;53.076;18.208;2023-02-21T05:54:16;100174.88;;;9.71;62.01
21706;BME280;11014;53.076;18.208;2023-02-21T05:56:47;100175.34;;;9.91;61.71
21706;BME280;11014;53.076;18.208;2023-02-21T05:59:18;100185.50;;;9.77;61.94
21706;BME280;11014;53.076;18.208;2023-02-21T06:01:49;100193.66;;;9.82;62.41
21706;BME280;11014;53.076;18.208;2023-02-21T06:04:18;100190.97;;;9.71;62.26
21706;BME280;11014;53.076;18.208;2023-02-21T06:06:46;100191.53;;;9.84;63.06
21706;BME280;11014;53.076;18.208;2023-02-21T06:09:15;100197.28;;;9.65;63.27
21706;BME280;11014;53.076;18.208;2023-02-21T06:11:45;100225.50;;;9.56;63.02
21706;BME280;11014;53.076;18.208;2023-02-21T06:14:16;100206.38;;;9.64;63.12
21706;BME280;11014;53.076;18.208;2023-02-21T06:16:46;100203.13;;;9.62;63.54
21706;BME280;11014;53.076;18.208;2023-02-21T06:19:15;100226.41;;;9.73;63.11
21706;BME280;11014;53.076;18.208;2023-02-21T06:21:45;100199.13;;;9.76;63.34
21706;BME280;11014;53.076;18.208;2023-02-21T06:24:14;100211.97;;;9.74;63.22
21706;BME280;11014;53.076;18.208;2023-02-21T06:26:42;100232.75;;;9.67;63.02
21706;BME280;11014;53.076;18.208;2023-02-21T06:29:12;100208.56;;;9.90;62.48
21706;BME280;11014;53.076;18.208;2023-02-21T06:31:40;100202.84;;;9.98;62.13
21706;BME280;11014;53.076;18.208;2023-02-21T06:34:09;100209.97;;;10.16;61.13
21706;BME280;11014;53.076;18.208;2023-02-21T06:36:38;100207.63;;;10.07;61.29
21706;BME280;11014;53.076;18.208;2023-02-21T06:39:18;100204.81;;;10.02;60.91
21706;BME280;11014;53.076;18.208;2023-02-21T06:41:48;100209.28;;;9.97;60.84
21706;BME280;11014;53.076;18.208;2023-02-21T06:44:17;100228.06;;;9.97;61.04
21706;BME280;11014;53.076;18.208;2023-02-21T06:46:47;100217.16;;;10.03;60.47
21706;BME280;11014;53.076;18.208;2023-02-21T06:49:17;100216.63;;;10.13;60.20
21706;BME280;11014;53.076;18.208;2023-02-21T06:51:47;100216.34;;;10.26;59.50
21706;BME280;11014;53.076;18.208;2023-02-21T06:54:15;100225.59;;;9.95;59.29
21706;BME280;11014;53.076;18.208;2023-02-21T06:56:44;100226.59;;;10.29;59.25
21706;BME280;11014;53.076;18.208;2023-02-21T06:59:12;100236.78;;;10.27;58.97
21706;BME280;11014;53.076;18.208;2023-02-21T07:01:41;100239.47;;;10.27;58.64
21706;BME280;11014;53.076;18.208;2023-02-21T07:04:10;100240.56;;;10.43;58.72
21706;BME280;11014;53.076;18.208;2023-02-21T07:06:38;100253.56;;;10.23;58.63
21706;BME280;11014;53.076;18.208;2023-02-21T07:09:06;100263.34;;;10.40;58.45
21706;BME280;11014;53.076;18.208;2023-02-21T07:11:35;100250.88;;;10.34;58.51
21706;BME280;11014;53.076;18.208;2023-02-21T07:14:04;100253.09;;;10.26;58.67
21706;BME280;11014;53.076;18.208;2023-02-21T07:16:33;100262.25;;;10.41;58.13
21706;BME280;11014;53.076;18.208;2023-02-21T07:19:01;100274.56;;;10.37;58.24
21706;BME280;11014;53.076;18.208;2023-02-21T07:21:30;100273.22;;;10.51;58.06
21706;BME280;11014;53.076;18.208;2023-02-21T07:23:59;100274.59;;;10.65;57.86
21706;BME280;11014;53.076;18.208;2023-02-21T07:26:27;100287.09;;;10.60;57.84
21706;BME280;11014;53.076;18.208;2023-02-21T07:28:56;100288.38;;;10.57;57.77
21706;BME280;11014;53.076;18.208;2023-02-21T07:31:24;100291.19;;;10.62;57.35
21706;BME280;11014;53.076;18.208;2023-02-21T07:33:53;100310.47;;;10.59;57.38
21706;BME280;11014;53.076;18.208;2023-02-21T07:36:21;100310.56;;;10.64;57.63
21706;BME280;11014;53.076;18.208;2023-02-21T07:38:50;100311.16;;;10.55;57.42
21706;BME280;11014;53.076;18.208;2023-02-21T07:41:18;100318.50;;;10.59;57.71
21706;BME280;11014;53.076;18.208;2023-02-21T07:43:47;100327.44;;;10.77;57.39
21706;BME280;11014;53.076;18.208;2023-02-21T07:46:16;100324.28;;;10.80;57.24
21706;BME280;11014;53.076;18.208;2023-02-21T07:48:45;100330.13;;;10.77;57.26
21706;BME280;11014;53.076;18.208;2023-02-21T07:51:14;100335.03;;;10.80;57.18
21706;BME280;11014;53.076;18.208;2023-02-21T07:53:42;100346.25;;;10.77;57.20
21706;BME280;11014;53.076;18.208;2023-02-21T07:56:11;100346.69;;;10.85;57.11
21706;BME280;11014;53.076;18.208;2023-02-21T07:58:40;100339.81;;;10.78;57.53
21706;BME280;11014;53.076;18.208;2023-02-21T08:01:08;100357.13;;;10.82;57.09
21706;BME280;11014;53.076;18.208;2023-02-21T08:03:37;100358.69;;;10.54;57.14
21706;BME280;11014;53.076;18.208;2023-02-21T08:06:07;100355.28;;;10.70;57.19
21706;BME280;11014;53.076;18.208;2023-02-21T08:08:36;100383.28;;;10.63;57.13
21706;BME280;11014;53.076;18.208;2023-02-21T08:11:04;100376.97;;;10.81;56.95
21706;BME280;11014;53.076;18.208;2023-02-21T08:13:33;100377.81;;;10.69;57.28
21706;BME280;11014;53.076;18.208;2023-02-21T08:16:02;100390.69;;;10.44;57.32
21706;BME280;11014;53.076;18.208;2023-02-21T08:18:30;100390.88;;;10.78;57.25
21706;BME280;11014;53.076;18.208;2023-02-21T08:20:59;100389.66;;;10.97;57.16
21706;BME280;11014;53.076;18.208;2023-02-21T08:23:27;100394.56;;;10.88;57.15
21706;BME280;11014;53.076;18.208;2023-02-21T08:25:56;100411.03;;;10.92;56.79
21706;BME280;11014;53.076;18.208;2023-02-21T08:28:24;100408.84;;;10.89;56.61
21706;BME280;11014;53.076;18.208;2023-02-21T08:30:53;100411.72;;;10.99;56.86
21706;BME280;11014;53.076;18.208;2023-02-21T08:33:22;100410.94;;;10.87;56.97
21706;BME280;11014;53.076;18.208;2023-02-21T08:35:51;100431.84;;;10.85;56.67
21706;BME280;11014;53.076;18.208;2023-02-21T08:38:19;100435.22;;;10.92;57.11
21706;BME280;11014;53.076;18.208;2023-02-21T08:40:48;100452.75;;;10.83;57.04
21706;BME280;11014;53.076;18.208;2023-02-21T08:43:18;100422.28;;;10.77;57.57
21706;BME280;11014;53.076;18.208;2023-02-21T08:45:47;100451.16;;;10.82;57.60
21706;BME280;11014;53.076;18.208;2023-02-21T08:48:16;100433.22;;;10.99;57.58
21706;BME280;11014;53.076;18.208;2023-02-21T08:50:45;100439.72;;;10.51;58.07
21706;BME280;11014;53.076;18.208;2023-02-21T08:53:13;100439.47;;;10.76;58.28
21706;BME280;11014;53.076;18.208;2023-02-21T08:55:43;100445.53;;;10.71;58.83
21706;BME280;11014;53.076;18.208;2023-02-21T08:58:12;100447.75;;;10.75;59.18
21706;BME280;11014;53.076;18.208;2023-02-21T09:00:40;100442.75;;;10.66;59.08
21706;BME280;11014;53.076;18.208;2023-02-21T09:03:09;100434.88;;;10.88;58.39
21706;BME280;11014;53.076;18.208;2023-02-21T09:05:37;100456.16;;;10.90;58.30
21706;BME280;11014;53.076;18.208;2023-02-21T09:08:06;100449.28;;;10.70;57.95
21706;BME280;11014;53.076;18.208;2023-02-21T09:10:37;100457.88;;;10.96;58.02
21706;BME280;11014;53.076;18.208;2023-02-21T09:13:08;100479.88;;;10.93;57.43
21706;BME280;11014;53.076;18.208;2023-02-21T09:15:37;100460.72;;;10.78;57.79
21706;BME280;11014;53.076;18.208;2023-02-21T09:18:05;100462.72;;;10.70;57.98
21706;BME280;11014;53.076;18.208;2023-02-21T09:20:34;100472.16;;;10.85;57.65
21706;BME280;11014;53.076;18.208;2023-02-21T09:23:03;100462.38;;;10.79;58.09
21706;BME280;11014;53.076;18.208;2023-02-21T09:25:31;100485.72;;;10.66;58.54
21706;BME280;11014;53.076;18.208;2023-02-21T09:28:00;100482.22;;;10.78;58.49
21706;BME280;11014;53.076;18.208;2023-02-21T09:30:29;100510.72;;;10.79;58.17
21706;BME280;11014;53.076;18.208;2023-02-21T09:32:57;100487.59;;;10.78;58.19
21706;BME280;11014;53.076;18.208;2023-02-21T09:35:26;100486.66;;;10.84;58.11
21706;BME280;11014;53.076;18.208;2023-02-21T09:37:58;100497.97;;;10.86;57.86
21706;BME280;11014;53.076;18.208;2023-02-21T09:40:43;100499.97;;;10.79;58.04
21706;BME280;11014;53.076;18.208;2023-02-21T09:43:20;100502.41;;;10.80;58.28
21706;BME280;11014;53.076;18.208;2023-02-21T09:45:53;100498.78;;;10.98;58.13
21706;BME280;11014;53.076;18.208;2023-02-21T09:48:23;100516.88;;;10.91;58.42
21706;BME280;11014;53.076;18.208;2023-02-21T09:50:57;100540.59;;;11.05;58.62
21706;BME280;11014;53.076;18.208;2023-02-21T09:53:30;100515.25;;;11.01;58.62
21706;BME280;11014;53.076;18.208;2023-02-21T09:56:03;100516.06;;;11.02;59.04
21706;BME280;11014;53.076;18.208;2023-02-21T09:58:34;100511.41;;;11.09;59.12
21706;BME280;11014;53.076;18.208;2023-02-21T10:01:08;100537.09;;;11.05;59.22
21706;BME280;11014;53.076;18.208;2023-02-21T10:03:47;100532.44;;;11.12;58.93
21706;BME280;11014;53.076;18.208;2023-02-21T10:06:49;100521.59;;;10.95;58.00
21706;BME280;11014;53.076;18.208;2023-02-21T10:12:35;100530.53;;;11.24;57.23
21706;BME280;11014;53.076;18.208;2023-02-21T10:15:42;100532.84;;;11.32;57.70
21706;BME280;11014;53.076;18.208;2023-02-21T10:21:16;100540.91;;;11.32;56.73
21706;BME280;11014;53.076;18.208;2023-02-21T10:23:51;100541.41;;;11.17;57.03
21706;BME280;11014;53.076;18.208;2023-02-21T10:26:28;100554.03;;;11.17;56.87
21706;BME280;11014;53.076;18.208;2023-02-21T10:28:57;100543.97;;;11.24;56.65
21706;BME280;11014;53.076;18.208;2023-02-21T10:31:33;100547.47;;;11.36;56.80
21706;BME280;11014;53.076;18.208;2023-02-21T10:34:05;100557.38;;;11.47;56.49
21706;BME280;11014;53.076;18.208;2023-02-21T10:36:35;100553.97;;;11.52;56.17
21706;BME280;11014;53.076;18.208;2023-02-21T10:39:09;100556.53;;;11.58;56.42
21706;BME280;11014;53.076;18.208;2023-02-21T10:41:41;100553.63;;;11.48;55.95
21706;BME280;11014;53.076;18.208;2023-02-21T10:44:14;100557.69;;;11.51;55.68
21706;BME280;11014;53.076;18.208;2023-02-21T10:46:51;100557.03;;;11.44;56.17
21706;BME280;11014;53.076;18.208;2023-02-21T10:49:28;100575.59;;;11.57;55.24
21706;BME280;11014;53.076;18.208;2023-02-21T10:52:17;100567.44;;;11.40;55.70
21706;BME280;11014;53.076;18.208;2023-02-21T10:55:00;100560.69;;;11.26;55.10
21706;BME280;11014;53.076;18.208;2023-02-21T10:57:32;100563.00;;;11.34;55.19
21706;BME280;11014;53.076;18.208;2023-02-21T11:00:02;100567.78;;;11.55;54.79
21706;BME280;11014;53.076;18.208;2023-02-21T11:02:56;100588.59;;;11.48;54.56
21706;BME280;11014;53.076;18.208;2023-02-21T11:05:30;100585.34;;;11.35;54.81
21706;BME280;11014;53.076;18.208;2023-02-21T11:08:03;100578.28;;;11.45;54.96
21706;BME280;11014;53.076;18.208;2023-02-21T11:10:37;100586.69;;;11.60;54.81
21706;BME280;11014;53.076;18.208;2023-02-21T11:15:38;100582.25;;;11.77;54.22
21706;BME280;11014;53.076;18.208;2023-02-21T11:18:31;100578.38;;;11.73;54.03
21706;BME280;11014;53.076;18.208;2023-02-21T11:21:10;100587.53;;;11.61;54.16
21706;BME280;11014;53.076;18.208;2023-02-21T11:23:51;100588.44;;;11.66;53.89
21706;BME280;11014;53.076;18.208;2023-02-21T11:26:28;100595.31;;;11.85;53.99
21706;BME280;11014;53.076;18.208;2023-02-21T11:29:09;100593.31;;;11.81;53.87
21706;BME280;11014;53.076;18.208;2023-02-21T11:31:39;100596.84;;;11.81;53.94
21706;BME280;11014;53.076;18.208;2023-02-21T11:34:12;100594.72;;;11.83;53.76
21706;BME280;11014;53.076;18.208;2023-02-21T11:36:43;100594.06;;;11.76;53.84
21706;BME280;11014;53.076;18.208;2023-02-21T11:41:50;100596.91;;;11.98;53.96
21706;BME280;11014;53.076;18.208;2023-02-21T11:47:21;100597.25;;;12.02;53.21
21706;BME280;11014;53.076;18.208;2023-02-21T11:50:07;100611.16;;;11.70;53.83
21706;BME280;11014;53.076;18.208;2023-02-21T11:55:19;100607.00;;;11.91;53.87
21706;BME280;11014;53.076;18.208;2023-02-21T12:03:21;100609.63;;;12.03;54.10
21706;BME280;11014;53.076;18.208;2023-02-21T12:09:04;100613.84;;;11.70;54.16
21706;BME280;11014;53.076;18.208;2023-02-21T12:12:04;100617.69;;;11.74;54.32
21706;BME280;11014;53.076;18.208;2023-02-21T12:28:52;100620.88;;;12.89;52.18
21706;BME280;11014;53.076;18.208;2023-02-21T12:40:19;100631.72;;;12.61;53.05
21706;BME280;11014;53.076;18.208;2023-02-21T12:43:11;100645.19;;;12.61;52.80
21706;BME280;11014;53.076;18.208;2023-02-21T12:49:09;100649.91;;;12.37;52.36
21706;BME280;11014;53.076;18.208;2023-02-21T12:51:46;100650.69;;;12.38;52.64
21706;BME280;11014;53.076;18.208;2023-02-21T12:54:20;100638.16;;;12.60;52.37
21706;BME280;11014;53.076;18.208;2023-02-21T12:56:58;100648.38;;;12.30;52.69
21706;BME280;11014;53.076;18.208;2023-02-21T13:03:00;100633.38;;;11.54;53.55
21706;BME280;11014;53.076;18.208;2023-02-21T13:05:47;100652.16;;;11.89;53.87
21706;BME280;11014;53.076;18.208;2023-02-21T13:08:59;100637.78;;;11.83;53.13
21706;BME280;11014;53.076;18.208;2023-02-21T13:11:56;100644.47;;;12.21;53.63
21706;BME280;11014;53.076;18.208;2023-02-21T13:18:26;100650.41;;;12.51;51.93
21706;BME280;11014;53.076;18.208;2023-02-21T13:32:49;100672.09;;;12.44;51.93
21706;BME280;11014;53.076;18.208;2023-02-21T13:35:24;100660.69;;;12.54;51.82
21706;BME280;11014;53.076;18.208;2023-02-21T13:37:54;100668.69;;;12.49;51.33
21706;BME280;11014;53.076;18.208;2023-02-21T13:40:30;100671.28;;;12.44;52.09
21706;BME280;11014;53.076;18.208;2023-02-21T13:43:12;100679.75;;;12.64;51.71
21706;BME280;11014;53.076;18.208;2023-02-21T13:45:43;100668.41;;;12.95;51.07
21706;BME280;11014;53.076;18.208;2023-02-21T13:48:25;100674.47;;;13.02;50.99
21706;BME280;11014;53.076;18.208;2023-02-21T13:50:56;100689.47;;;13.27;50.23
21706;BME280;11014;53.076;18.208;2023-02-21T13:53:28;100707.31;;;12.83;50.35
21706;BME280;11014;53.076;18.208;2023-02-21T13:58:38;100704.31;;;12.51;51.27
21706;BME280;11014;53.076;18.208;2023-02-21T14:01:19;100710.94;;;12.32;51.42
21706;BME280;11014;53.076;18.208;2023-02-21T14:03:55;100722.25;;;12.45;51.38
21706;BME280;11014;53.076;18.208;2023-02-21T14:06:31;100727.50;;;12.12;52.16
21706;BME280;11014;53.076;18.208;2023-02-21T14:09:08;100708.19;;;12.43;52.06
21706;BME280;11014;53.076;18.208;2023-02-21T14:11:45;100713.69;;;12.48;51.97
21706;BME280;11014;53.076;18.208;2023-02-21T14:14:28;100719.78;;;12.44;52.00
21706;BME280;11014;53.076;18.208;2023-02-21T14:24:41;100735.59;;;12.01;52.73
21706;BME280;11014;53.076;18.208;2023-02-21T14:29:45;100735.59;;;12.01;53.33
21706;BME280;11014;53.076;18.208;2023-02-21T14:32:37;100734.91;;;11.94;53.58
21706;BME280;11014;53.076;18.208;2023-02-21T14:37:44;100726.03;;;12.21;53.04
21706;BME280;11014;53.076;18.208;2023-02-21T15:00:59;100759.00;;;11.88;53.52
21706;BME280;11014;53.076;18.208;2023-02-21T15:03:40;100782.16;;;11.66;53.88
21706;BME280;11014;53.076;18.208;2023-02-21T15:06:17;100766.50;;;11.75;54.38
21706;BME280;11014;53.076;18.208;2023-02-21T15:08:53;100778.06;;;11.52;54.49
21706;BME280;11014;53.076;18.208;2023-02-21T15:11:35;100793.19;;;11.76;54.28
21706;BME280;11014;53.076;18.208;2023-02-21T15:14:13;100775.16;;;11.88;54.16
21706;BME280;11014;53.076;18.208;2023-02-21T15:16:54;100777.25;;;11.63;54.82
21706;BME280;11014;53.076;18.208;2023-02-21T15:19:31;100796.19;;;11.57;54.94
21706;BME280;11014;53.076;18.208;2023-02-21T15:22:20;100787.06;;;11.46;54.81
21706;BME280;11014;53.076;18.208;2023-02-21T15:25:21;100780.97;;;11.62;54.51
21706;BME280;11014;53.076;18.208;2023-02-21T15:27:57;100787.81;;;11.76;54.82
21706;BME280;11014;53.076;18.208;2023-02-21T15:30:35;100791.28;;;11.65;54.56
21706;BME280;11014;53.076;18.208;2023-02-21T15:33:19;100805.06;;;11.57;55.19
21706;BME280;11014;53.076;18.208;2023-02-21T15:35:54;100804.63;;;11.60;54.83
21706;BME280;11014;53.076;18.208;2023-02-21T15:44:27;100806.47;;;11.48;55.50
21706;BME280;11014;53.076;18.208;2023-02-21T15:47:21;100810.81;;;11.49;55.48
21706;BME280;11014;53.076;18.208;2023-02-21T15:50:29;100809.72;;;11.50;55.20
21706;BME280;11014;53.076;18.208;2023-02-21T15:53:23;100816.97;;;11.38;55.51
21706;BME280;11014;53.076;18.208;2023-02-21T15:56:15;100816.41;;;11.48;55.49
21706;BME280;11014;53.076;18.208;2023-02-21T16:02:22;100824.09;;;11.32;55.84
21706;BME280;11014;53.076;18.208;2023-02-21T16:04:52;100832.94;;;11.21;55.69
21706;BME280;11014;53.076;18.208;2023-02-21T16:07:31;100830.63;;;11.25;55.73